createdAt,value
2023-03-29T00:00:30.488Z,-3.43
2023-03-29T00:02:57.624Z,-3.55
2023-03-29T00:05:25.546Z,-3.58
2023-03-29T00:07:54.474Z,-3.62
2023-03-29T00:10:24.176Z,-3.70
2023-03-29T00:12:52.739Z,-3.52
2023-03-29T00:15:20.645Z,-3.79
2023-03-29T00:17:47.774Z,-3.75
2023-03-29T00:20:14.845Z,-3.55
2023-03-29T00:22:44.634Z,-3.94
2023-03-29T00:25:12.161Z,-3.77
2023-03-29T00:27:39.935Z,-3.69
2023-03-29T00:30:09.084Z,-3.43
2023-03-29T00:32:36.805Z,-3.63
2023-03-29T00:35:06.105Z,-3.60
2023-03-29T00:37:33.799Z,-3.91
2023-03-29T00:40:00.929Z,-3.69
2023-03-29T00:42:28.084Z,-3.77
2023-03-29T00:45:20.695Z,-3.75
2023-03-29T00:47:55.747Z,-3.76
2023-03-29T00:50:26.456Z,-3.79
2023-03-29T00:53:03.716Z,-3.94
2023-03-29T00:55:39.396Z,-3.99
2023-03-29T00:58:10.108Z,-3.75
2023-03-29T01:00:40.400Z,-4.04
2023-03-29T01:03:13.981Z,-3.97
2023-03-29T01:05:49.259Z,-4.02
2023-03-29T01:08:27.752Z,-3.93
2023-03-29T01:11:05.995Z,-3.88
2023-03-29T01:13:54.480Z,-3.92
2023-03-29T01:16:28.789Z,-3.91
2023-03-29T01:18:58.601Z,-4.18
2023-03-29T01:21:32.460Z,-3.81
2023-03-29T01:24:18.272Z,-3.78
2023-03-29T01:26:59.818Z,-3.70
2023-03-29T01:29:48.113Z,-3.63
2023-03-29T01:32:16.947Z,-3.61
2023-03-29T01:34:59.155Z,-3.65
2023-03-29T01:37:36.485Z,-3.95
2023-03-29T01:40:06.258Z,-4.98
2023-03-29T01:42:54.594Z,-3.87
2023-03-29T01:45:50.526Z,-4.00
2023-03-29T01:48:32.870Z,-4.01
2023-03-29T01:51:07.543Z,-4.11
2023-03-29T01:53:54.172Z,-4.23
2023-03-29T01:56:25.001Z,-4.18
2023-03-29T01:59:06.510Z,-4.06
2023-03-29T02:01:38.634Z,-4.10
2023-03-29T02:04:13.405Z,-4.38
2023-03-29T02:06:42.228Z,-4.34
2023-03-29T02:09:09.932Z,-4.44
2023-03-29T02:11:38.062Z,-4.14
2023-03-29T02:14:05.681Z,-4.02
2023-03-29T02:16:39.339Z,-4.00
2023-03-29T02:19:08.104Z,-4.12
2023-03-29T02:22:07.349Z,-3.94
2023-03-29T02:24:37.317Z,-3.79
2023-03-29T02:27:07.845Z,-3.67
2023-03-29T02:29:34.927Z,-3.81
2023-03-29T02:32:20.616Z,-3.61
2023-03-29T02:35:38.577Z,-3.52
2023-03-29T02:38:11.525Z,-3.67
2023-03-29T02:40:42.033Z,-3.66
2023-03-29T02:43:11.445Z,-3.67
2023-03-29T02:45:41.348Z,-3.94
2023-03-29T02:48:13.765Z,-3.67
2023-03-29T02:50:43.147Z,-3.95
2023-03-29T02:53:17.155Z,-3.78
2023-03-29T02:55:47.062Z,-3.71
2023-03-29T02:58:15.692Z,-3.77
2023-03-29T03:00:46.591Z,-3.74
2023-03-29T03:03:15.674Z,-3.89
2023-03-29T03:05:45.278Z,-3.88
2023-03-29T03:08:12.416Z,-4.00
2023-03-29T03:10:40.017Z,-4.11
2023-03-29T03:13:07.382Z,-4.07
2023-03-29T03:15:37.517Z,-3.85
2023-03-29T03:18:04.825Z,-3.92
2023-03-29T03:20:32.661Z,-4.07
2023-03-29T03:23:01.289Z,-4.34
2023-03-29T03:25:28.806Z,-4.54
2023-03-29T03:27:56.348Z,-3.96
2023-03-29T03:30:25.673Z,-4.26
2023-03-29T03:32:55.701Z,-4.06
2023-03-29T03:35:48.783Z,-4.19
2023-03-29T03:38:17.299Z,-4.12
2023-03-29T03:40:54.988Z,-4.07
2023-03-29T03:43:22.671Z,-3.96
2023-03-29T03:45:51.188Z,-4.03
2023-03-29T03:48:23.191Z,-3.87
2023-03-29T03:51:06.123Z,-4.02
2023-03-29T03:53:35.322Z,-3.96
2023-03-29T03:56:15.480Z,-3.91
2023-03-29T03:59:01.363Z,-3.90
2023-03-29T04:01:34.198Z,-3.86
2023-03-29T04:04:14.834Z,-3.85
2023-03-29T04:06:53.233Z,-3.98
2023-03-29T04:09:20.902Z,-3.81
2023-03-29T04:11:56.135Z,-3.81
2023-03-29T04:14:23.221Z,-3.82
2023-03-29T04:17:09.004Z,-3.81
2023-03-29T04:19:49.866Z,-3.74
2023-03-29T04:22:17.032Z,-3.73
2023-03-29T04:24:43.990Z,-3.85
2023-03-29T04:27:37.287Z,-3.76
2023-03-29T04:30:11.244Z,-4.09
2023-03-29T04:33:01.544Z,-3.96
2023-03-29T04:35:28.667Z,-3.81
2023-03-29T04:37:55.774Z,-3.83
2023-03-29T04:40:23.968Z,-3.98
2023-03-29T04:43:07.845Z,-4.19
2023-03-29T04:45:37.053Z,-3.80
2023-03-29T04:48:11.649Z,-3.95
2023-03-29T04:50:41.869Z,-3.81
2023-03-29T04:53:08.894Z,-3.72
2023-03-29T04:55:35.892Z,-3.77
2023-03-29T04:58:03.025Z,-4.02
2023-03-29T05:00:32.255Z,-3.82
2023-03-29T05:03:02.124Z,-3.78
2023-03-29T05:05:32.490Z,-3.80
2023-03-29T05:08:01.921Z,-4.04
2023-03-29T05:10:37.557Z,-3.66
2023-03-29T05:13:04.590Z,-3.90
2023-03-29T05:15:32.353Z,-3.64
2023-03-29T05:18:00.961Z,-3.92
2023-03-29T05:20:28.726Z,-3.59
2023-03-29T05:22:57.364Z,-3.80
2023-03-29T05:25:51.653Z,-3.50
2023-03-29T05:28:19.316Z,-3.85
2023-03-29T05:30:46.877Z,-3.80
2023-03-29T05:33:19.678Z,-3.57
2023-03-29T05:35:46.919Z,-3.66
2023-03-29T05:38:13.976Z,-3.64
2023-03-29T05:40:41.643Z,-3.58
2023-03-29T05:43:17.485Z,-3.43
2023-03-29T05:45:45.571Z,-3.11
2023-03-29T05:48:13.608Z,-3.39
2023-03-29T05:50:47.413Z,-3.17
2023-03-29T05:53:16.492Z,-3.19
2023-03-29T05:55:44.259Z,-3.33
2023-03-29T05:58:14.568Z,-3.17
2023-03-29T06:00:43.077Z,-3.09
2023-03-29T06:03:28.410Z,-3.18
2023-03-29T06:06:00.726Z,-3.11
2023-03-29T06:08:29.041Z,-3.03
2023-03-29T06:11:09.316Z,-2.91
2023-03-29T06:13:55.995Z,-3.09
2023-03-29T06:16:23.485Z,-2.99
2023-03-29T06:18:50.847Z,-2.86
2023-03-29T06:21:18.056Z,-2.62
2023-03-29T06:23:45.448Z,-2.54
2023-03-29T06:26:13.076Z,-2.82
2023-03-29T06:28:40.827Z,-2.63
2023-03-29T06:31:10.400Z,-2.34
2023-03-29T06:33:40.349Z,-2.32
2023-03-29T06:36:16.985Z,-2.28
2023-03-29T06:38:46.022Z,-2.42
2023-03-29T06:41:23.856Z,-2.06
2023-03-29T06:44:10.892Z,-2.15
2023-03-29T06:46:50.558Z,-2.08
2023-03-29T06:49:17.488Z,-1.96
2023-03-29T06:52:00.650Z,-2.04
2023-03-29T06:54:27.815Z,-1.83
2023-03-29T06:57:04.125Z,-1.69
2023-03-29T06:59:35.018Z,-1.51
2023-03-29T07:02:22.947Z,-1.44
2023-03-29T07:05:12.165Z,-1.33
2023-03-29T07:08:00.508Z,-1.37
2023-03-29T07:10:53.962Z,-1.42
2023-03-29T07:13:33.246Z,-1.49
2023-03-29T07:16:04.139Z,-1.35
2023-03-29T07:18:51.610Z,-1.60
2023-03-29T07:21:40.819Z,-1.41
2023-03-29T07:24:10.255Z,-1.57
2023-03-29T07:26:39.295Z,-1.44
2023-03-29T07:29:07.809Z,-1.41
2023-03-29T07:31:38.878Z,-1.35
2023-03-29T07:34:38.574Z,-1.47
2023-03-29T07:37:09.589Z,-1.23
2023-03-29T07:39:38.601Z,-0.98
2023-03-29T07:42:36.824Z,-0.89
2023-03-29T07:45:08.891Z,-1.03
2023-03-29T07:47:45.451Z,-0.72
2023-03-29T07:50:13.007Z,-1.08
2023-03-29T07:52:40.706Z,-1.09
2023-03-29T07:55:10.025Z,-0.86
2023-03-29T07:57:54.288Z,-0.77
2023-03-29T08:00:22.476Z,-0.64
2023-03-29T08:03:07.530Z,-0.63
2023-03-29T08:05:41.204Z,-0.76
2023-03-29T08:08:15.513Z,-0.48
2023-03-29T08:10:50.529Z,-0.48
2023-03-29T08:13:46.708Z,-0.37
2023-03-29T08:16:33.120Z,-0.26
2023-03-29T08:19:08.430Z,-0.36
2023-03-29T08:22:01.750Z,-0.39
2023-03-29T08:24:37.766Z,-0.27
2023-03-29T08:27:07.355Z,-0.34
2023-03-29T08:29:34.662Z,-0.50
2023-03-29T08:32:02.139Z,-0.29
2023-03-29T08:34:31.877Z,-0.60
2023-03-29T08:37:22.143Z,-0.38
2023-03-29T08:39:51.147Z,0.02
2023-03-29T08:42:47.650Z,-0.05
2023-03-29T08:45:35.630Z,0.34
2023-03-29T08:48:22.610Z,-0.01
2023-03-29T08:50:54.246Z,0.05
2023-03-29T08:53:31.952Z,-0.16
2023-03-29T08:56:31.511Z,0.19
2023-03-29T08:59:37.761Z,0.16
2023-03-29T09:02:25.365Z,0.40
2023-03-29T09:05:08.765Z,0.74
2023-03-29T09:07:44.396Z,0.76
2023-03-29T09:10:19.163Z,1.02
2023-03-29T09:13:11.526Z,1.14
2023-03-29T09:16:06.316Z,1.12
2023-03-29T09:19:06.912Z,1.38
2023-03-29T09:21:44.168Z,1.52
2023-03-29T09:24:39.463Z,1.75
2023-03-29T09:27:27.487Z,1.87
2023-03-29T09:30:35.444Z,1.79
2023-03-29T09:33:14.701Z,2.04
2023-03-29T09:36:17.541Z,2.25
2023-03-29T09:38:51.118Z,2.30
2023-03-29T09:41:32.530Z,2.53
2023-03-29T09:44:10.936Z,2.33
2023-03-29T09:46:47.724Z,2.35
2023-03-29T09:49:21.283Z,2.65
2023-03-29T09:51:50.277Z,2.51
2023-03-29T09:54:19.590Z,2.71
2023-03-29T09:57:15.837Z,2.88
2023-03-29T09:59:46.268Z,2.84
2023-03-29T10:02:14.159Z,3.24
2023-03-29T10:04:43.025Z,2.96
2023-03-29T10:07:18.471Z,3.22
2023-03-29T10:09:52.125Z,2.75
2023-03-29T10:12:21.055Z,3.29
2023-03-29T10:14:57.609Z,3.51
2023-03-29T10:17:28.379Z,3.25
2023-03-29T10:20:04.143Z,3.71
2023-03-29T10:22:41.294Z,3.43
2023-03-29T10:25:17.669Z,3.59
2023-03-29T10:27:48.251Z,3.79
2023-03-29T10:30:24.277Z,3.67
2023-03-29T10:33:00.036Z,3.54
2023-03-29T10:35:34.942Z,3.36
2023-03-29T10:38:05.087Z,3.78
2023-03-29T10:40:35.281Z,3.47
2023-03-29T10:43:20.810Z,3.63
2023-03-29T10:45:54.584Z,3.25
2023-03-29T10:48:29.616Z,3.23
2023-03-29T10:51:02.160Z,3.31
2023-03-29T10:53:35.183Z,3.42
2023-03-29T10:56:18.189Z,3.49
2023-03-29T10:59:15.894Z,3.34
2023-03-29T11:02:15.319Z,3.09
2023-03-29T11:05:16.514Z,3.25
2023-03-29T11:08:17.503Z,3.10
2023-03-29T11:10:50.751Z,3.31
2023-03-29T11:13:52.825Z,3.40
2023-03-29T11:16:42.848Z,2.96
2023-03-29T11:19:19.115Z,3.59
2023-03-29T11:21:59.927Z,3.70
2023-03-29T11:24:48.572Z,3.74
2023-03-29T11:27:37.094Z,3.84
2023-03-29T11:30:22.048Z,3.70
2023-03-29T11:32:56.726Z,3.61
2023-03-29T11:35:36.484Z,3.56
2023-03-29T11:38:21.940Z,3.47
2023-03-29T11:41:23.458Z,3.50
2023-03-29T11:44:07.146Z,3.60
2023-03-29T11:46:39.628Z,3.77
2023-03-29T11:49:10.459Z,3.93
2023-03-29T11:52:19.268Z,4.11
2023-03-29T11:54:54.823Z,4.26
2023-03-29T11:57:28.138Z,3.92
2023-03-29T12:00:04.536Z,4.11
2023-03-29T12:02:52.123Z,4.15
2023-03-29T12:05:30.752Z,4.15
2023-03-29T12:08:01.121Z,4.36
2023-03-29T12:10:50.648Z,4.35
2023-03-29T12:13:33.773Z,4.34
2023-03-29T12:16:09.014Z,4.36
2023-03-29T12:18:42.448Z,4.73
2023-03-29T12:21:17.292Z,4.92
2023-03-29T12:23:46.093Z,5.09
2023-03-29T12:26:30.000Z,4.90
2023-03-29T12:29:26.453Z,5.33
2023-03-29T12:32:27.844Z,5.39
2023-03-29T12:35:34.471Z,5.46
2023-03-29T12:38:21.798Z,5.50
2023-03-29T12:41:17.816Z,5.43
2023-03-29T12:43:51.558Z,5.78
2023-03-29T12:46:32.239Z,5.75
2023-03-29T12:49:11.599Z,5.73
2023-03-29T12:51:42.183Z,5.69
2023-03-29T12:54:16.109Z,5.72
2023-03-29T12:56:58.533Z,5.61
2023-03-29T12:59:25.955Z,5.76
2023-03-29T13:02:14.146Z,5.66
2023-03-29T13:04:44.049Z,5.77
2023-03-29T13:07:16.165Z,5.91
2023-03-29T13:09:59.073Z,5.84
2023-03-29T13:12:27.538Z,5.83
2023-03-29T13:14:58.228Z,5.54
2023-03-29T13:18:09.720Z,5.56
2023-03-29T13:21:14.044Z,5.27
2023-03-29T13:23:57.288Z,5.56
2023-03-29T13:26:36.393Z,5.71
2023-03-29T13:29:03.708Z,5.66
2023-03-29T13:32:01.914Z,5.72
2023-03-29T13:34:44.094Z,5.93
2023-03-29T13:37:43.390Z,5.32
2023-03-29T13:40:42.215Z,5.54
2023-03-29T13:43:21.267Z,5.58
2023-03-29T13:45:57.009Z,5.84
2023-03-29T13:48:27.647Z,5.74
2023-03-29T13:51:08.277Z,5.39
2023-03-29T13:53:41.052Z,5.40
2023-03-29T13:56:15.731Z,5.38
2023-03-29T13:58:58.565Z,5.29
2023-03-29T14:01:38.257Z,5.45
2023-03-29T14:04:12.737Z,5.74
2023-03-29T14:06:42.886Z,5.56
2023-03-29T14:09:14.515Z,5.65
2023-03-29T14:11:45.396Z,5.45
2023-03-29T14:14:12.524Z,5.28
2023-03-29T14:16:41.886Z,5.42
2023-03-29T14:19:19.128Z,5.44
2023-03-29T14:21:46.547Z,5.47
2023-03-29T14:24:20.997Z,5.26
2023-03-29T14:26:48.558Z,5.18
2023-03-29T14:29:15.996Z,5.21
2023-03-29T14:31:43.348Z,5.29
2023-03-29T14:34:16.984Z,5.48
2023-03-29T14:36:46.397Z,5.44
2023-03-29T14:39:22.263Z,5.45
2023-03-29T14:41:54.185Z,5.56
2023-03-29T14:44:24.420Z,5.63
2023-03-29T14:46:51.479Z,5.50
2023-03-29T14:49:21.138Z,5.68
2023-03-29T14:51:49.465Z,5.47
2023-03-29T14:54:22.280Z,5.43
2023-03-29T14:56:51.107Z,5.58
2023-03-29T14:59:55.119Z,5.41
2023-03-29T15:02:28.441Z,5.43
2023-03-29T15:05:07.640Z,5.04
2023-03-29T15:07:37.058Z,5.12
2023-03-29T15:10:06.617Z,5.04
2023-03-29T15:12:34.577Z,4.84
2023-03-29T15:15:02.793Z,4.90
2023-03-29T15:17:50.308Z,4.48
2023-03-29T15:20:24.682Z,4.44
2023-03-29T15:23:00.242Z,4.45
2023-03-29T15:25:33.156Z,4.15
2023-03-29T15:28:01.669Z,4.22
2023-03-29T15:30:37.928Z,4.01
2023-03-29T15:33:29.145Z,3.90
2023-03-29T15:35:57.373Z,3.83
2023-03-29T15:38:33.133Z,3.50
2023-03-29T15:41:08.610Z,3.38
2023-03-29T15:43:37.882Z,3.55
2023-03-29T15:46:07.813Z,3.41
2023-03-29T15:48:37.021Z,3.15
2023-03-29T15:51:06.346Z,3.22
2023-03-29T15:53:42.740Z,3.29
2023-03-29T15:56:16.017Z,2.99
2023-03-29T15:58:43.489Z,3.16
2023-03-29T16:01:19.295Z,2.84
2023-03-29T16:03:48.031Z,3.15
2023-03-29T16:06:17.924Z,3.12
2023-03-29T16:08:49.446Z,3.04
2023-03-29T16:11:17.000Z,3.18
2023-03-29T16:13:44.129Z,3.03
2023-03-29T16:16:11.616Z,2.93
2023-03-29T16:18:38.764Z,3.02
2023-03-29T16:21:06.533Z,2.83
2023-03-29T16:23:33.547Z,2.77
2023-03-29T16:26:00.808Z,2.90
2023-03-29T16:28:28.517Z,2.76
2023-03-29T16:30:55.576Z,2.62
2023-03-29T16:33:23.015Z,2.76
2023-03-29T16:35:50.151Z,2.93
2023-03-29T16:38:17.289Z,2.91
2023-03-29T16:40:45.181Z,2.69
2023-03-29T16:43:16.479Z,2.52
2023-03-29T16:45:47.170Z,2.78
2023-03-29T16:48:19.940Z,2.36
2023-03-29T16:50:50.410Z,2.53
2023-03-29T16:53:19.836Z,2.42
2023-03-29T16:55:47.811Z,2.48
2023-03-29T16:58:15.602Z,2.44
2023-03-29T17:00:45.027Z,2.56
2023-03-29T17:03:13.589Z,2.41
2023-03-29T17:05:46.240Z,2.04
2023-03-29T17:08:13.176Z,2.39
2023-03-29T17:10:40.920Z,2.43
2023-03-29T17:13:08.269Z,2.43
2023-03-29T17:15:39.420Z,2.37
2023-03-29T17:18:07.308Z,2.33
2023-03-29T17:20:40.498Z,2.27
2023-03-29T17:23:08.956Z,2.39
2023-03-29T17:25:36.357Z,2.24
2023-03-29T17:28:03.648Z,2.09
2023-03-29T17:30:31.044Z,2.29
2023-03-29T17:32:58.138Z,2.21
2023-03-29T17:35:26.493Z,2.23
2023-03-29T17:37:54.881Z,2.15
2023-03-29T17:40:22.663Z,2.14
2023-03-29T17:42:50.462Z,2.31
2023-03-29T17:45:17.568Z,2.24
2023-03-29T17:47:45.102Z,1.94
2023-03-29T17:50:13.215Z,2.14
2023-03-29T17:52:40.557Z,1.96
2023-03-29T17:55:13.758Z,1.84
2023-03-29T17:57:41.437Z,2.23
2023-03-29T18:00:12.295Z,2.36
2023-03-29T18:02:40.428Z,2.35
2023-03-29T18:05:09.531Z,2.26
2023-03-29T18:07:37.510Z,2.41
2023-03-29T18:10:14.491Z,2.26
2023-03-29T18:12:41.775Z,2.03
2023-03-29T18:15:09.311Z,2.44
2023-03-29T18:17:36.457Z,2.28
2023-03-29T18:20:10.191Z,2.27
2023-03-29T18:22:41.921Z,2.61
2023-03-29T18:25:10.213Z,2.56
2023-03-29T18:27:38.594Z,2.40
2023-03-29T18:30:07.548Z,2.54
2023-03-29T18:32:34.570Z,2.37
2023-03-29T18:35:02.852Z,2.42
2023-03-29T18:37:29.798Z,2.53
2023-03-29T18:39:57.035Z,2.28
2023-03-29T18:42:24.097Z,2.64
2023-03-29T18:44:51.447Z,2.18
2023-03-29T18:47:18.510Z,2.40
2023-03-29T18:49:45.692Z,2.55
2023-03-29T18:52:12.815Z,2.44
2023-03-29T18:54:39.845Z,2.32
2023-03-29T18:57:07.069Z,2.42
2023-03-29T18:59:36.678Z,2.13
2023-03-29T19:02:04.121Z,2.52
2023-03-29T19:04:31.118Z,2.55
2023-03-29T19:06:59.936Z,2.39
2023-03-29T19:09:28.123Z,2.14
2023-03-29T19:11:55.435Z,2.15
2023-03-29T19:14:25.687Z,2.33
2023-03-29T19:16:53.174Z,2.24
2023-03-29T19:19:22.184Z,2.14
2023-03-29T19:21:49.667Z,2.32
2023-03-29T19:24:17.218Z,2.09
2023-03-29T19:26:44.861Z,2.06
2023-03-29T19:29:11.861Z,1.80
2023-03-29T19:31:39.068Z,2.30
2023-03-29T19:34:07.100Z,2.25
2023-03-29T19:36:34.212Z,2.25
2023-03-29T19:39:01.330Z,2.04
2023-03-29T19:41:28.820Z,2.33
2023-03-29T19:43:55.871Z,2.29
2023-03-29T19:46:23.333Z,2.10
2023-03-29T19:48:51.918Z,2.29
2023-03-29T19:51:19.695Z,2.31
2023-03-29T19:53:47.357Z,2.26
2023-03-29T19:56:16.020Z,2.24
2023-03-29T19:58:43.252Z,2.23
2023-03-29T20:01:10.337Z,2.04
2023-03-29T20:03:37.333Z,2.19
2023-03-29T20:06:08.402Z,2.22
2023-03-29T20:08:38.945Z,1.79
2023-03-29T20:11:10.560Z,2.19
2023-03-29T20:13:46.624Z,1.70
2023-03-29T20:16:16.773Z,2.14
2023-03-29T20:18:45.095Z,1.95
2023-03-29T20:21:18.404Z,1.92
2023-03-29T20:23:45.680Z,1.83
2023-03-29T20:26:12.643Z,1.93
2023-03-29T20:28:39.667Z,1.59
2023-03-29T20:31:10.895Z,1.75
2023-03-29T20:33:39.228Z,1.59
2023-03-29T20:36:06.817Z,1.11
2023-03-29T20:38:35.537Z,1.29
2023-03-29T20:41:04.788Z,1.49
2023-03-29T20:43:37.787Z,1.31
2023-03-29T20:46:14.486Z,1.38
2023-03-29T20:48:54.020Z,1.46
2023-03-29T20:51:22.609Z,1.44
2023-03-29T20:53:50.789Z,1.27
2023-03-29T20:56:19.171Z,1.48
2023-03-29T20:58:46.301Z,1.46
2023-03-29T21:01:14.599Z,1.17
2023-03-29T21:03:43.435Z,1.18
2023-03-29T21:06:15.124Z,0.80
2023-03-29T21:08:45.546Z,1.14
2023-03-29T21:11:13.739Z,1.42
2023-03-29T21:13:41.651Z,1.48
2023-03-29T21:16:09.035Z,1.36
2023-03-29T21:18:37.178Z,0.96
2023-03-29T21:21:08.197Z,1.05
2023-03-29T21:23:38.367Z,1.20
2023-03-29T21:26:09.665Z,0.99
2023-03-29T21:28:37.761Z,1.09
2023-03-29T21:31:10.755Z,1.03
2023-03-29T21:33:37.826Z,0.77
2023-03-29T21:36:10.993Z,1.06
2023-03-29T21:38:37.961Z,1.12
2023-03-29T21:41:05.446Z,0.80
2023-03-29T21:43:32.744Z,1.04
2023-03-29T21:45:59.728Z,1.20
2023-03-29T21:48:26.823Z,1.11
2023-03-29T21:50:53.864Z,1.19
2023-03-29T21:53:21.018Z,1.00
2023-03-29T21:55:52.099Z,1.23
2023-03-29T21:58:19.300Z,1.07
2023-03-29T22:00:47.691Z,1.13
2023-03-29T22:03:16.009Z,1.16
2023-03-29T22:05:44.509Z,0.80
2023-03-29T22:08:11.913Z,0.93
2023-03-29T22:10:41.465Z,1.13
2023-03-29T22:13:09.422Z,1.02
2023-03-29T22:15:37.178Z,1.00
2023-03-29T22:18:04.404Z,1.13
2023-03-29T22:20:35.780Z,0.94
2023-03-29T22:23:03.486Z,0.87
2023-03-29T22:25:30.696Z,0.92
2023-03-29T22:27:58.423Z,0.88
2023-03-29T22:30:25.551Z,1.13
2023-03-29T22:32:52.589Z,1.18
2023-03-29T22:35:19.595Z,0.94
2023-03-29T22:37:46.615Z,1.17
2023-03-29T22:40:14.175Z,1.14
2023-03-29T22:42:41.341Z,0.91
2023-03-29T22:45:09.129Z,0.97
2023-03-29T22:47:36.258Z,1.20
2023-03-29T22:50:03.680Z,0.56
2023-03-29T22:52:30.810Z,1.09
2023-03-29T22:54:57.804Z,1.22
2023-03-29T22:57:24.746Z,1.20
2023-03-29T22:59:53.136Z,1.10
2023-03-29T23:02:20.133Z,1.11
2023-03-29T23:04:47.662Z,1.22
2023-03-29T23:07:14.850Z,1.11
2023-03-29T23:09:42.383Z,1.33
2023-03-29T23:12:14.541Z,1.30
2023-03-29T23:14:42.917Z,1.31
2023-03-29T23:17:10.413Z,1.33
2023-03-29T23:19:38.254Z,1.37
2023-03-29T23:22:05.236Z,1.00
2023-03-29T23:24:32.566Z,1.29
2023-03-29T23:27:01.243Z,1.36
2023-03-29T23:29:28.594Z,0.66
2023-03-29T23:31:56.951Z,1.14
2023-03-29T23:34:24.093Z,1.09
2023-03-29T23:36:51.118Z,1.23
2023-03-29T23:39:24.061Z,1.01
2023-03-29T23:41:51.142Z,1.26
2023-03-29T23:44:18.136Z,1.38
2023-03-29T23:46:45.124Z,1.11
2023-03-29T23:49:12.390Z,1.22
2023-03-29T23:51:39.736Z,0.58
2023-03-29T23:54:07.425Z,1.11
2023-03-29T23:56:34.625Z,1.33
2023-03-29T23:59:01.703Z,1.17
